createdAt,value
2022-09-12T00:01:26.015Z,11.47
2022-09-12T00:03:58.202Z,11.44
2022-09-12T00:06:28.226Z,11.47
2022-09-12T00:08:55.968Z,11.54
2022-09-12T00:11:22.759Z,11.56
2022-09-12T00:13:49.484Z,11.53
2022-09-12T00:16:18.475Z,11.47
2022-09-12T00:18:46.858Z,11.44
2022-09-12T00:21:14.561Z,11.45
2022-09-12T00:23:41.011Z,11.46
2022-09-12T00:26:07.914Z,11.38
2022-09-12T00:28:35.770Z,11.37
2022-09-12T00:31:06.003Z,11.42
2022-09-12T00:33:32.561Z,11.49
2022-09-12T00:35:59.199Z,11.47
2022-09-12T00:38:25.631Z,11.48
2022-09-12T00:40:52.125Z,11.49
2022-09-12T00:43:30.451Z,11.44
2022-09-12T00:45:58.245Z,11.31
2022-09-12T00:48:34.048Z,11.35
2022-09-12T00:51:01.142Z,11.27
2022-09-12T00:53:27.902Z,11.33
2022-09-12T00:55:54.777Z,11.32
2022-09-12T00:58:30.629Z,11.37
2022-09-12T01:00:58.660Z,11.34
2022-09-12T01:03:25.468Z,11.24
2022-09-12T01:06:09.586Z,11.28
2022-09-12T01:08:37.444Z,11.30
2022-09-12T01:11:05.611Z,11.33
2022-09-12T01:13:34.879Z,11.31
2022-09-12T01:16:20.087Z,11.27
2022-09-12T01:19:06.048Z,11.26
2022-09-12T01:21:50.235Z,11.25
2022-09-12T01:24:53.799Z,11.27
2022-09-12T01:27:47.887Z,11.02
2022-09-12T01:30:39.643Z,10.98
2022-09-12T01:33:37.440Z,11.11
2022-09-12T01:36:38.310Z,11.13
2022-09-12T01:39:18.347Z,11.17
2022-09-12T01:42:04.227Z,11.15
2022-09-12T01:44:50.140Z,11.12
2022-09-12T01:47:24.192Z,11.05
2022-09-12T01:49:56.744Z,11.10
2022-09-12T01:52:27.851Z,11.07
2022-09-12T01:55:31.450Z,11.05
2022-09-12T01:58:05.497Z,11.00
2022-09-12T02:00:38.884Z,10.85
2022-09-12T02:03:11.275Z,10.92
2022-09-12T02:05:42.120Z,10.96
2022-09-12T02:08:12.921Z,10.93
2022-09-12T02:10:56.304Z,11.02
2022-09-12T02:13:28.641Z,10.89
2022-09-12T02:16:19.352Z,10.96
2022-09-12T02:18:51.387Z,10.93
2022-09-12T02:21:20.123Z,10.92
2022-09-12T02:23:48.993Z,11.01
2022-09-12T02:26:26.620Z,10.93
2022-09-12T02:28:53.166Z,11.04
2022-09-12T02:31:41.124Z,11.03
2022-09-12T02:34:39.850Z,11.06
2022-09-12T02:37:18.411Z,11.01
2022-09-12T02:39:45.626Z,11.01
2022-09-12T02:42:12.453Z,11.06
2022-09-12T02:44:39.002Z,11.10
2022-09-12T02:47:21.675Z,11.07
2022-09-12T02:49:48.646Z,11.08
2022-09-12T02:52:15.262Z,11.09
2022-09-12T02:54:42.287Z,11.12
2022-09-12T02:57:20.646Z,11.09
2022-09-12T02:59:49.710Z,11.04
2022-09-12T03:02:30.692Z,11.07
2022-09-12T03:05:08.608Z,11.10
2022-09-12T03:08:05.675Z,11.09
2022-09-12T03:10:35.275Z,11.06
2022-09-12T03:13:29.920Z,11.06
2022-09-12T03:16:26.512Z,11.07
2022-09-12T03:19:03.667Z,11.01
2022-09-12T03:21:34.176Z,10.98
2022-09-12T03:24:16.191Z,11.07
2022-09-12T03:26:47.718Z,11.02
2022-09-12T03:29:15.083Z,11.07
2022-09-12T03:31:53.032Z,10.99
2022-09-12T03:34:21.123Z,11.01
2022-09-12T03:36:47.917Z,10.98
2022-09-12T03:39:16.061Z,10.97
2022-09-12T03:41:42.875Z,10.85
2022-09-12T03:44:09.382Z,10.91
2022-09-12T03:46:36.282Z,10.83
2022-09-12T03:49:02.792Z,10.88
2022-09-12T03:51:31.029Z,10.93
2022-09-12T03:53:57.503Z,10.93
2022-09-12T03:56:24.261Z,10.89
2022-09-12T03:58:50.753Z,10.86
2022-09-12T04:01:19.585Z,10.89
2022-09-12T04:03:48.217Z,10.93
2022-09-12T04:06:16.547Z,10.87
2022-09-12T04:08:44.387Z,10.83
2022-09-12T04:11:13.449Z,10.81
2022-09-12T04:13:41.034Z,10.80
2022-09-12T04:16:07.655Z,10.82
2022-09-12T04:18:34.704Z,10.69
2022-09-12T04:21:10.167Z,10.77
2022-09-12T04:23:36.611Z,10.74
2022-09-12T04:26:06.440Z,10.85
2022-09-12T04:28:33.335Z,10.84
2022-09-12T04:31:07.855Z,10.70
2022-09-12T04:33:35.295Z,10.79
2022-09-12T04:36:10.494Z,10.82
2022-09-12T04:38:38.275Z,10.88
2022-09-12T04:41:15.544Z,10.87
2022-09-12T04:43:42.639Z,10.83
2022-09-12T04:46:11.388Z,10.83
2022-09-12T04:48:38.090Z,10.87
2022-09-12T04:51:28.394Z,10.86
2022-09-12T04:53:59.551Z,10.96
2022-09-12T04:56:27.229Z,11.01
2022-09-12T04:58:56.741Z,11.05
2022-09-12T05:01:23.236Z,11.15
2022-09-12T05:03:50.534Z,11.20
2022-09-12T05:06:22.082Z,11.22
2022-09-12T05:08:48.818Z,11.19
2022-09-12T05:11:19.585Z,11.28
2022-09-12T05:13:50.027Z,11.44
2022-09-12T05:16:17.945Z,11.61
2022-09-12T05:18:44.883Z,11.63
2022-09-12T05:21:13.944Z,11.85
2022-09-12T05:23:40.560Z,11.80
2022-09-12T05:26:08.108Z,11.98
2022-09-12T05:28:36.703Z,12.12
2022-09-12T05:31:09.115Z,12.24
2022-09-12T05:33:37.517Z,12.28
2022-09-12T05:36:06.433Z,12.35
2022-09-12T05:38:36.134Z,12.57
2022-09-12T05:41:07.735Z,12.56
2022-09-12T05:43:36.980Z,12.53
2022-09-12T05:46:08.919Z,12.40
2022-09-12T05:48:39.093Z,12.47
2022-09-12T05:51:08.895Z,12.57
2022-09-12T05:53:37.396Z,12.54
2022-09-12T05:56:05.939Z,12.60
2022-09-12T05:58:32.682Z,12.64
2022-09-12T06:01:18.296Z,12.74
2022-09-12T06:03:51.641Z,12.70
2022-09-12T06:06:20.191Z,12.84
2022-09-12T06:08:48.370Z,12.83
2022-09-12T06:11:17.887Z,12.99
2022-09-12T06:13:44.591Z,13.17
2022-09-12T06:16:17.564Z,13.28
2022-09-12T06:18:51.130Z,13.34
2022-09-12T06:21:18.037Z,13.38
2022-09-12T06:23:46.175Z,13.42
2022-09-12T06:26:21.843Z,13.61
2022-09-12T06:28:48.344Z,13.57
2022-09-12T06:31:23.018Z,13.71
2022-09-12T06:33:53.199Z,14.00
2022-09-12T06:36:24.932Z,14.23
2022-09-12T06:38:57.096Z,14.58
2022-09-12T06:41:25.676Z,14.77
2022-09-12T06:43:52.860Z,15.10
2022-09-12T06:46:19.413Z,15.34
2022-09-12T06:48:46.388Z,15.53
2022-09-12T06:51:15.020Z,15.84
2022-09-12T06:53:42.155Z,16.03
2022-09-12T06:56:20.358Z,16.26
2022-09-12T06:58:48.775Z,16.43
2022-09-12T07:01:20.409Z,16.51
2022-09-12T07:03:49.127Z,16.56
2022-09-12T07:06:18.194Z,16.73
2022-09-12T07:08:45.880Z,16.89
2022-09-12T07:11:21.226Z,16.71
2022-09-12T07:13:49.751Z,16.72
2022-09-12T07:16:19.931Z,16.68
2022-09-12T07:18:54.796Z,17.18
2022-09-12T07:21:21.420Z,17.46
2022-09-12T07:23:48.227Z,17.45
2022-09-12T07:26:16.066Z,17.50
2022-09-12T07:28:42.868Z,17.20
2022-09-12T07:31:16.061Z,17.52
2022-09-12T07:33:43.154Z,17.95
2022-09-12T07:36:18.360Z,17.78
2022-09-12T07:38:45.098Z,17.45
2022-09-12T07:41:15.504Z,17.46
2022-09-12T07:43:42.067Z,17.42
2022-09-12T07:46:09.267Z,17.20
2022-09-12T07:48:36.262Z,17.16
2022-09-12T07:51:05.532Z,17.33
2022-09-12T07:53:34.691Z,17.70
2022-09-12T07:56:03.576Z,17.90
2022-09-12T07:58:30.629Z,17.80
2022-09-12T08:01:16.223Z,17.77
2022-09-12T08:03:44.457Z,17.74
2022-09-12T08:06:14.885Z,17.93
2022-09-12T08:08:42.078Z,18.25
2022-09-12T08:11:10.904Z,18.54
2022-09-12T08:13:38.737Z,18.85
2022-09-12T08:16:08.063Z,18.83
2022-09-12T08:18:36.431Z,19.00
2022-09-12T08:21:06.197Z,19.16
2022-09-12T08:23:33.078Z,18.58
2022-09-12T08:26:06.429Z,18.31
2022-09-12T08:28:34.983Z,17.95
2022-09-12T08:31:13.462Z,18.42
2022-09-12T08:33:40.482Z,18.36
2022-09-12T08:36:12.124Z,18.42
2022-09-12T08:38:40.825Z,18.71
2022-09-12T08:41:30.468Z,18.71
2022-09-12T08:44:02.314Z,18.94
2022-09-12T08:46:35.202Z,19.32
2022-09-12T08:49:03.057Z,18.86
2022-09-12T08:51:31.476Z,18.72
2022-09-12T08:54:00.838Z,18.52
2022-09-12T08:56:31.791Z,18.26
2022-09-12T08:58:59.476Z,17.84
2022-09-12T09:01:39.344Z,17.65
2022-09-12T09:04:47.651Z,17.60
2022-09-12T09:07:25.404Z,17.67
2022-09-12T09:10:14.305Z,17.46
2022-09-12T09:13:46.983Z,17.38
2022-09-12T09:16:25.029Z,17.44
2022-09-12T09:18:54.103Z,17.52
2022-09-12T09:21:22.368Z,17.79
2022-09-12T09:23:54.156Z,17.73
2022-09-12T09:26:26.707Z,17.53
2022-09-12T09:28:53.061Z,17.86
2022-09-12T09:31:24.613Z,18.31
2022-09-12T09:33:54.105Z,18.62
2022-09-12T09:36:22.541Z,18.33
2022-09-12T09:38:51.022Z,18.87
2022-09-12T09:41:40.133Z,19.06
2022-09-12T09:46:33.432Z,20.25
2022-09-12T09:49:03.402Z,20.55
2022-09-12T09:51:34.787Z,20.11
2022-09-12T09:54:50.233Z,19.88
2022-09-12T09:57:37.097Z,20.20
2022-09-12T10:00:37.186Z,20.57
2022-09-12T10:03:23.274Z,20.51
2022-09-12T10:05:53.797Z,19.94
2022-09-12T10:08:29.252Z,19.44
2022-09-12T10:11:10.114Z,19.11
2022-09-12T10:13:41.462Z,19.90
2022-09-12T10:16:19.880Z,19.85
2022-09-12T10:18:46.501Z,19.06
2022-09-12T10:21:23.478Z,19.09
2022-09-12T10:24:00.324Z,19.74
2022-09-12T10:26:35.420Z,20.23
2022-09-12T10:29:15.290Z,20.62
2022-09-12T10:31:51.281Z,20.78
2022-09-12T10:34:28.789Z,20.60
2022-09-12T10:37:00.853Z,20.54
2022-09-12T10:39:27.603Z,20.54
2022-09-12T10:41:54.277Z,20.22
2022-09-12T10:44:30.774Z,20.49
2022-09-12T10:46:58.757Z,21.04
2022-09-12T10:49:38.233Z,21.33
2022-09-12T10:52:37.329Z,21.65
2022-09-12T10:55:03.973Z,21.89
2022-09-12T10:57:52.616Z,21.95
2022-09-12T11:00:27.525Z,21.60
2022-09-12T11:03:16.939Z,21.26
2022-09-12T11:05:59.957Z,20.81
2022-09-12T11:09:23.660Z,21.17
2022-09-12T11:12:03.097Z,21.51
2022-09-12T11:14:54.401Z,21.70
2022-09-12T11:17:42.575Z,21.76
2022-09-12T11:20:18.140Z,22.14
2022-09-12T11:22:52.312Z,22.34
2022-09-12T11:25:27.630Z,21.70
2022-09-12T11:28:06.062Z,21.43
2022-09-12T11:30:39.656Z,21.68
2022-09-12T11:33:27.833Z,21.32
2022-09-12T11:35:59.242Z,20.99
2022-09-12T11:38:51.642Z,21.47
2022-09-12T11:41:25.527Z,21.77
2022-09-12T11:44:11.520Z,21.96
2022-09-12T11:46:39.791Z,22.28
2022-09-12T11:49:09.088Z,22.50
2022-09-12T11:51:49.990Z,21.70
2022-09-12T11:54:30.751Z,21.41
2022-09-12T11:57:15.449Z,20.67
2022-09-12T11:59:53.168Z,21.07
2022-09-12T12:02:27.793Z,21.49
2022-09-12T12:05:28.704Z,22.08
2022-09-12T12:08:00.430Z,22.37
2022-09-12T12:11:08.445Z,22.50
2022-09-12T12:13:38.616Z,22.38
2022-09-12T12:16:25.775Z,22.40
2022-09-12T12:18:57.985Z,21.85
2022-09-12T12:21:43.956Z,21.74
2022-09-12T12:24:10.427Z,21.46
2022-09-12T12:26:39.979Z,21.21
2022-09-12T12:29:18.586Z,21.06
2022-09-12T12:32:00.614Z,21.63
2022-09-12T12:34:34.131Z,22.33
2022-09-12T12:37:22.512Z,22.21
2022-09-12T12:39:50.315Z,21.90
2022-09-12T12:42:34.936Z,22.08
2022-09-12T12:45:29.254Z,22.02
2022-09-12T12:47:59.846Z,22.22
2022-09-12T12:50:29.407Z,22.61
2022-09-12T12:53:03.624Z,22.83
2022-09-12T12:55:37.873Z,22.53
2022-09-12T12:58:20.763Z,22.56
2022-09-12T13:00:47.487Z,22.60
2022-09-12T13:03:29.077Z,22.76
2022-09-12T13:06:00.768Z,22.87
2022-09-12T13:08:32.415Z,22.63
2022-09-12T13:11:03.550Z,22.21
2022-09-12T13:13:48.619Z,22.34
2022-09-12T13:16:37.725Z,22.34
2022-09-12T13:19:16.179Z,22.14
2022-09-12T13:22:04.788Z,22.27
2022-09-12T13:24:31.561Z,22.85
2022-09-12T13:26:58.138Z,22.56
2022-09-12T13:29:26.819Z,22.27
2022-09-12T13:31:59.245Z,22.19
2022-09-12T13:34:29.163Z,22.26
2022-09-12T13:37:16.543Z,22.48
2022-09-12T13:43:15.351Z,22.44
2022-09-12T13:45:43.731Z,22.21
2022-09-12T13:48:17.137Z,21.59
2022-09-12T13:50:52.050Z,21.77
2022-09-12T13:53:22.742Z,21.88
2022-09-12T13:55:54.419Z,22.00
2022-09-12T13:58:29.542Z,21.98
2022-09-12T14:01:14.885Z,21.84
2022-09-12T14:04:14.443Z,21.73
2022-09-12T14:06:50.030Z,21.69
2022-09-12T14:09:41.370Z,21.94
2022-09-12T14:12:30.302Z,21.85
2022-09-12T14:14:57.167Z,21.95
2022-09-12T14:17:31.637Z,21.76
2022-09-12T14:20:03.673Z,21.57
2022-09-12T14:22:30.363Z,21.51
2022-09-12T14:24:58.683Z,21.52
2022-09-12T14:27:31.775Z,21.65
2022-09-12T14:30:02.646Z,21.36
2022-09-12T14:32:29.286Z,21.38
2022-09-12T14:35:05.972Z,21.38
2022-09-12T14:37:32.598Z,21.29
2022-09-12T14:39:59.647Z,20.98
2022-09-12T14:42:29.871Z,20.96
2022-09-12T14:45:06.391Z,20.86
2022-09-12T14:47:41.103Z,20.88
2022-09-12T14:50:19.152Z,20.58
2022-09-12T14:52:45.824Z,20.62
2022-09-12T14:55:31.745Z,20.21
2022-09-12T14:58:26.751Z,19.94
2022-09-12T15:00:56.030Z,19.63
2022-09-12T15:03:30.034Z,19.45
2022-09-12T15:05:57.216Z,19.51
2022-09-12T15:08:25.280Z,19.45
2022-09-12T15:10:53.279Z,19.14
2022-09-12T15:13:26.175Z,18.86
2022-09-12T15:15:55.061Z,18.44
2022-09-12T15:18:23.420Z,18.18
2022-09-12T15:21:00.623Z,18.30
2022-09-12T15:23:34.635Z,18.37
2022-09-12T15:26:01.701Z,18.29
2022-09-12T15:28:28.499Z,18.52
2022-09-12T15:30:56.186Z,18.31
2022-09-12T15:33:25.251Z,18.36
2022-09-12T15:35:53.618Z,18.39
2022-09-12T15:38:24.433Z,18.28
2022-09-12T15:40:56.059Z,18.01
2022-09-12T15:43:23.123Z,18.05
2022-09-12T15:45:51.697Z,18.22
2022-09-12T15:48:19.050Z,18.15
2022-09-12T15:50:45.653Z,17.99
2022-09-12T15:53:16.383Z,17.79
2022-09-12T15:55:46.054Z,17.86
2022-09-12T15:58:32.480Z,17.63
2022-09-12T16:01:02.515Z,17.80
2022-09-12T16:03:34.270Z,17.77
2022-09-12T16:06:05.028Z,17.85
2022-09-12T16:08:33.604Z,17.71
2022-09-12T16:11:09.735Z,17.41
2022-09-12T16:13:36.267Z,17.39
2022-09-12T16:16:05.754Z,17.33
2022-09-12T16:18:32.322Z,17.27
2022-09-12T16:20:58.867Z,17.22
2022-09-12T16:23:25.323Z,17.05
2022-09-12T16:26:05.268Z,17.02
2022-09-12T16:28:33.660Z,16.91
2022-09-12T16:31:02.401Z,16.82
2022-09-12T16:33:29.958Z,16.92
2022-09-12T16:36:07.919Z,16.86
2022-09-12T16:38:35.862Z,16.70
2022-09-12T16:41:04.285Z,16.67
2022-09-12T16:43:31.270Z,16.69
2022-09-12T16:46:03.211Z,16.75
2022-09-12T16:48:30.117Z,16.54
2022-09-12T16:51:02.021Z,16.39
2022-09-12T16:53:35.901Z,16.07
2022-09-12T16:56:02.765Z,16.20
2022-09-12T16:58:32.838Z,16.11
2022-09-12T17:01:01.467Z,16.14
2022-09-12T17:03:27.908Z,16.39
2022-09-12T17:06:10.835Z,16.71
2022-09-12T17:08:39.654Z,16.68
2022-09-12T17:11:11.550Z,16.60
2022-09-12T17:14:00.520Z,16.49
2022-09-12T17:16:26.499Z,16.33
2022-09-12T17:18:53.603Z,16.24
2022-09-12T17:21:20.420Z,16.38
2022-09-12T17:23:47.482Z,16.32
2022-09-12T17:26:14.994Z,16.36
2022-09-12T17:28:41.584Z,16.56
2022-09-12T17:31:10.329Z,16.36
2022-09-12T17:33:37.376Z,16.18
2022-09-12T17:36:06.370Z,15.81
2022-09-12T17:38:34.793Z,15.87
2022-09-12T17:41:06.225Z,15.72
2022-09-12T17:43:33.457Z,15.64
2022-09-12T17:45:59.941Z,15.45
2022-09-12T17:48:26.475Z,15.46
2022-09-12T17:50:54.310Z,15.43
2022-09-12T17:53:20.834Z,15.19
2022-09-12T17:55:51.452Z,15.35
2022-09-12T17:58:20.217Z,14.96
2022-09-12T18:01:05.664Z,15.03
2022-09-12T18:03:32.096Z,15.31
2022-09-12T18:05:58.694Z,15.38
2022-09-12T18:08:25.332Z,15.23
2022-09-12T18:10:52.587Z,15.08
2022-09-12T18:13:22.270Z,15.20
2022-09-12T18:15:49.293Z,15.08
2022-09-12T18:18:15.755Z,14.99
2022-09-12T18:20:49.943Z,14.77
2022-09-12T18:23:16.479Z,14.72
2022-09-12T18:25:42.971Z,14.69
2022-09-12T18:28:09.745Z,14.70
2022-09-12T18:30:36.324Z,14.58
2022-09-12T18:33:02.916Z,14.36
2022-09-12T18:35:29.462Z,14.44
2022-09-12T18:37:55.946Z,14.43
2022-09-12T18:40:22.480Z,14.28
2022-09-12T18:42:49.647Z,14.21
2022-09-12T18:45:16.234Z,14.18
2022-09-12T18:47:42.653Z,14.08
2022-09-12T18:50:09.427Z,14.09
2022-09-12T18:52:35.887Z,14.10
2022-09-12T18:55:02.862Z,14.08
2022-09-12T18:57:34.843Z,14.16
2022-09-12T19:00:03.472Z,14.08
2022-09-12T19:02:30.353Z,13.96
2022-09-12T19:04:56.924Z,13.87
2022-09-12T19:07:23.556Z,13.82
2022-09-12T19:09:50.324Z,13.70
2022-09-12T19:12:17.835Z,13.62
2022-09-12T19:14:45.535Z,13.65
2022-09-12T19:17:12.310Z,13.80
2022-09-12T19:19:40.604Z,13.78
2022-09-12T19:22:07.286Z,14.00
2022-09-12T19:24:35.376Z,14.06
2022-09-12T19:27:02.215Z,13.94
2022-09-12T19:29:31.557Z,13.83
2022-09-12T19:32:00.636Z,13.95
2022-09-12T19:34:28.173Z,13.94
2022-09-12T19:36:54.747Z,14.00
2022-09-12T19:39:21.360Z,13.90
2022-09-12T19:41:48.208Z,14.06
2022-09-12T19:44:19.186Z,14.03
2022-09-12T19:46:45.744Z,13.95
2022-09-12T19:49:12.879Z,13.97
2022-09-12T19:51:39.692Z,13.75
2022-09-12T19:54:07.728Z,13.68
2022-09-12T19:56:34.517Z,13.82
2022-09-12T19:59:01.044Z,13.62
2022-09-12T20:01:31.387Z,13.38
2022-09-12T20:03:59.314Z,13.52
2022-09-12T20:06:26.646Z,13.59
2022-09-12T20:08:53.560Z,13.44
2022-09-12T20:11:22.061Z,13.62
2022-09-12T20:13:48.597Z,13.56
2022-09-12T20:16:22.204Z,13.51
2022-09-12T20:18:53.831Z,13.66
2022-09-12T20:21:24.876Z,13.51
2022-09-12T20:23:51.666Z,13.41
2022-09-12T20:26:20.241Z,13.45
2022-09-12T20:28:46.927Z,13.29
2022-09-12T20:31:15.314Z,13.33
2022-09-12T20:33:41.849Z,13.04
2022-09-12T20:36:14.389Z,13.13
2022-09-12T20:38:41.886Z,13.17
2022-09-12T20:41:12.490Z,13.01
2022-09-12T20:43:40.060Z,12.99
2022-09-12T20:46:07.904Z,12.85
2022-09-12T20:48:34.435Z,13.08
2022-09-12T20:51:01.170Z,12.84
2022-09-12T20:53:30.652Z,12.84
2022-09-12T20:56:01.039Z,12.68
2022-09-12T20:58:27.470Z,12.47
2022-09-12T21:00:55.945Z,12.28
2022-09-12T21:03:22.581Z,12.26
2022-09-12T21:05:50.333Z,12.41
2022-09-12T21:08:17.034Z,12.19
2022-09-12T21:10:44.368Z,12.26
2022-09-12T21:13:11.684Z,11.97
2022-09-12T21:15:39.018Z,12.12
2022-09-12T21:18:05.718Z,12.38
2022-09-12T21:20:33.750Z,11.96
2022-09-12T21:23:01.275Z,11.89
2022-09-12T21:25:29.114Z,12.04
2022-09-12T21:27:55.570Z,12.02
2022-09-12T21:30:22.366Z,11.94
2022-09-12T21:32:48.962Z,11.97
2022-09-12T21:35:15.543Z,12.02
2022-09-12T21:37:42.003Z,12.12
2022-09-12T21:40:08.852Z,12.16
2022-09-12T21:42:35.387Z,11.78
2022-09-12T21:45:01.919Z,11.67
2022-09-12T21:47:28.388Z,11.55
2022-09-12T21:49:55.340Z,11.68
2022-09-12T21:52:22.011Z,11.67
2022-09-12T21:54:48.616Z,11.64
2022-09-12T21:57:15.482Z,11.69
2022-09-12T21:59:41.929Z,11.70
2022-09-12T22:02:08.761Z,11.72
2022-09-12T22:04:35.324Z,11.53
2022-09-12T22:07:02.124Z,11.62
2022-09-12T22:09:28.639Z,11.64
2022-09-12T22:11:55.623Z,11.65
2022-09-12T22:14:22.055Z,11.75
2022-09-12T22:16:49.486Z,11.87
2022-09-12T22:19:16.007Z,11.74
2022-09-12T22:22:04.544Z,11.66
2022-09-12T22:24:31.030Z,11.60
2022-09-12T22:26:59.029Z,11.58
2022-09-12T22:29:26.504Z,11.31
2022-09-12T22:31:53.633Z,11.43
2022-09-12T22:34:20.111Z,11.42
2022-09-12T22:36:48.034Z,11.56
2022-09-12T22:39:14.946Z,11.56
2022-09-12T22:41:41.374Z,11.51
2022-09-12T22:44:07.853Z,11.32
2022-09-12T22:46:34.346Z,11.41
2022-09-12T22:49:00.867Z,11.31
2022-09-12T22:51:27.340Z,11.25
2022-09-12T22:53:54.057Z,11.22
2022-09-12T22:56:20.500Z,11.13
2022-09-12T22:58:49.056Z,11.16
2022-09-12T23:01:15.518Z,11.28
2022-09-12T23:03:44.436Z,11.39
2022-09-12T23:06:11.255Z,11.24
2022-09-12T23:08:38.370Z,11.18
2022-09-12T23:11:06.330Z,11.26
2022-09-12T23:13:33.359Z,11.28
2022-09-12T23:16:01.352Z,11.21
2022-09-12T23:18:28.069Z,11.34
2022-09-12T23:21:05.578Z,11.39
2022-09-12T23:23:32.388Z,11.36
2022-09-12T23:26:21.416Z,11.43
2022-09-12T23:29:00.561Z,11.38
2022-09-12T23:31:32.190Z,11.20
2022-09-12T23:34:01.942Z,11.21
2022-09-12T23:36:30.229Z,11.35
2022-09-12T23:38:58.216Z,11.36
2022-09-12T23:41:24.686Z,11.18
2022-09-12T23:43:51.690Z,11.01
2022-09-12T23:46:18.922Z,11.01
2022-09-12T23:48:47.583Z,11.03
2022-09-12T23:51:14.441Z,10.99
2022-09-12T23:53:41.407Z,10.91
2022-09-12T23:56:08.188Z,11.07
2022-09-12T23:58:34.700Z,11.08
